Currently 80°F in Beaumont, California, USA
80°F
80°F / 61°F
3 mph SW
0.00"
Sunday, July 21, 2019 10:07 AM PDT

Beaumont, California Weather Summary
Last 36 Hours

Temperature Winds Hourly Humidity Dewpoint
Time Report Norm Report Norm Max Gusts Precip. Rpt. Norm Rpt. Norm Pressure
1Sun 10:07 AM  80.2°F  80°F  3 mph SW  4 mph  10 mph  0.00"  32%  40%  47°F  52°F  29.90"
Sun 10:00 AM  80.1°F  80°F  4 mph S  4 mph  10 mph  0.00"  31%  40%  46°F  52°F  29.90"
2Sun 09:57 AM  80.2°F  79°F  4 mph SW  4 mph  8 mph  ----  31%  41%  46°F  53°F  29.90"
Sun 09:00 AM  77.4°F  77°F  3 mph S  3 mph  10 mph  0.00"  37%  43%  48°F  52°F  29.89"
Sun 08:00 AM  73.8°F  74°F  2 mph NE  2 mph  3 mph  0.00"  42%  47%  48°F  52°F  29.88"
Sun 07:00 AM  69.6°F  71°F  3 mph N  1 mph  5 mph  0.00"  48%  50%  48°F  50°F  29.88"
Sun 06:00 AM  65.7°F  68°F  2 mph W  1 mph  3 mph  0.00"  45%  52%  43°F  49°F  29.87"
Sun 05:00 AM  65.8°F  68°F  calm  1 mph  3 mph  0.00"  54%  53%  48°F  50°F  29.85"
Sun 04:00 AM  66.9°F  68°F  2 mph NW  1 mph  9 mph  0.00"  55%  53%  50°F  50°F  29.85"
Sun 03:00 AM  69.3°F  68°F  2 mph W  1 mph  10 mph  0.00"  47%  55%  47°F  51°F  29.87"
Sun 02:00 AM  67.6°F  68°F  4 mph NW  1 mph  8 mph  0.00"  44%  56%  44°F  51°F  29.88"
Sun 01:00 AM  63.1°F  68°F  2 mph W  1 mph  3 mph  0.00"  65%  56%  51°F  51°F  29.89"
3Sun 12:16 AM  60.6°F  68°F  2 mph N  1 mph  3 mph  ----  69%  56%  50°F  51°F  29.89"
Sun 12:00 AM  61.2°F  69°F  calm  1 mph  3 mph  0.00"  69%  56%  51°F  52°F  29.89"
Sat 11:00 PM  63.3°F  70°F  calm  1 mph  3 mph  0.00"  66%  54%  51°F  52°F  29.88"
Sat 10:00 PM  65.3°F  72°F  1 mph N  2 mph  12 mph  0.00"  61%  51%  51°F  52°F  29.87"
Sat 09:00 PM  69.3°F  75°F  6 mph N  3 mph  none  0.00"  54%  47%  51°F  52°F  29.85"
Sat 08:00 PM  71.1°F  77°F  5 mph W  3 mph  none  0.00"  51%  44%  51°F  53°F  29.84"
Sat 07:00 PM  75.4°F  81°F  3 mph W  3 mph  12 mph  0.00"  43%  40%  51°F  54°F  29.84"
Sat 06:00 PM  80.1°F  85°F  4 mph W  4 mph  12 mph  0.00"  33%  35%  47°F  53°F  29.84"
Sat 05:00 PM  82.6°F  87°F  4 mph S  4 mph  14 mph  0.00"  24%  32%  41°F  52°F  29.85"
Sat 04:00 PM  82.4°F  88°F  3 mph W  4 mph  10 mph  0.00"  28%  31%  45°F  52°F  29.86"
Sat 03:00 PM  82.0°F  88°F  4 mph SW  4 mph  13 mph  0.00"  32%  30%  48°F  52°F  29.87"
Sat 02:00 PM  81.3°F  87°F  5 mph W  4 mph  13 mph  0.00"  34%  32%  49°F  53°F  29.89"
Sat 01:00 PM  79.0°F  86°F  6 mph S  5 mph  15 mph  0.00"  29%  33%  43°F  53°F  29.90"
Sat 12:00 PM  77.7°F  84°F  4 mph SE  4 mph  13 mph  0.00"  35%  36%  47°F  53°F  29.91"
Sat 11:00 AM  74.3°F  82°F  4 mph S  4 mph  12 mph  0.00"  38%  39%  46°F  53°F  29.91"
Sat 10:00 AM  72.1°F  80°F  3 mph SW  4 mph  9 mph  0.00"  36%  40%  43°F  52°F  29.91"
Sat 09:00 AM  71.1°F  77°F  2 mph SW  3 mph  7 mph  0.00"  29%  43%  36°F  52°F  29.91"
Sat 08:00 AM  69.1°F  74°F  1 mph NW  2 mph  5 mph  0.00"  30%  47%  35°F  52°F  29.91"
Sat 07:00 AM  63.0°F  71°F  1 mph NW  1 mph  3 mph  0.00"  47%  50%  42°F  50°F  29.90"
Sat 06:00 AM  59.4°F  68°F  3 mph NW  1 mph  3 mph  0.00"  51%  52%  41°F  49°F  29.89"
Sat 05:00 AM  57.6°F  68°F  3 mph NW  2 mph  3 mph  0.00"  64%  53%  45°F  49°F  29.89"
Sat 04:00 AM  58.6°F  68°F  2 mph NW  2 mph  5 mph  0.00"  55%  53%  42°F  50°F  29.89"
Sat 03:00 AM  57.6°F  68°F  3 mph NW  1 mph  6 mph  0.00"  57%  54%  42°F  50°F  29.89"
Sat 02:00 AM  57.4°F  68°F  calm  1 mph  1 mph  0.00"  80%  54%  51°F  51°F  29.90"
Sat 01:00 AM  57.6°F  68°F  calm  1 mph  3 mph  0.00"  81%  55%  52°F  51°F  29.90"
Sat 12:00 AM  58.6°F  69°F  calm  1 mph  3 mph  0.00"  78%  55%  52°F  51°F  29.89"
Fri 11:00 PM  60.6°F  70°F  calm  1 mph  8 mph  0.00"  74%  53%  52°F  52°F  29.89"

  1. Current weather data. No green row appears if the current weather data is also the high or low for the current day.
  2. High temperature for the current day.
  3. Low temperature for the current day.

The Beaumont, California weather pages are a service of WeatherCurrents. Cherry Valley is located in northern Riverside County, California, a community of the northern part of Beaumont, along the Interstate 10 highway, in the San Gorgonio pass area, between the communities of Calimesa, Banning.
Copyright ©2019  WeatherCurrents. All rights reserved. - Submit questions and comments - Privacy Policy

This page automatically refreshes every 10 minutes.